Latest Weather Observations for Parawa West

IDS60901

Issued at 4:55 pm CST Monday 1 September 2014 (issued every 10 minutes, with the page automatically refreshed every 10 minutes)

About weather observations | Map of Adelaide area stations | Latest observations for Adelaide area | Other Formats
Station Details ID: 023875 Name: SECOND VALLEY FOREST AWS Lat: -35.57 Lon: 138.29 Height: 341.0 m
Data from the previous 72 hours. | See also: Recent months at Parawa West
Date/Time
CST
Tmp

°C
App
Tmp
°C
Dew
Point
°C
Rel
Hum
%
Delta-T

°C
Wind Press
QNH
hPa
Press
MSL
hPa
Rain
since
9 am
mm
Dir
 
Spd
km/h
Gust
km/h
Spd
kts
Gust
kts
01/04:30pm 9.7 6.7 6.2 79 1.7 W 11 19 6 10 1014.4 1014.4 0.4
01/04:00pm 10.0 6.4 6.7 80 1.6 W 15 20 8 11 1013.8 1013.8 0.4
01/03:30pm 10.1 7.8 7.5 84 1.3 WNW 9 15 5 8 1013.6 1013.6 0.4
01/03:00pm 10.3 7.1 7.0 80 1.6 WNW 13 20 7 11 1013.5 1013.5 0.0
01/02:30pm 9.4 4.5 5.2 75 1.9 SW 20 33 11 18 1013.4 1013.4 0.0
01/02:00pm 10.2 6.5 6.2 76 1.9 SW 15 22 8 12 1013.3 1013.3 0.0
01/01:30pm 12.8 8.1 5.2 60 3.6 WSW 19 28 10 15 1013.1 1013.1 0.0
01/01:00pm 11.2 6.2 4.4 63 3.1 WSW 20 33 11 18 1013.2 1013.2 0.0
01/12:30pm 11.8 7.9 6.9 72 2.4 WSW 17 26 9 14 1013.4 1013.4 0.0
01/12:00pm 11.5 6.8 6.0 69 2.6 W 20 33 11 18 1013.4 1013.4 0.0
01/11:30am 11.9 7.3 6.4 69 2.7 W 20 28 11 15 1013.4 1013.4 0.0
01/11:00am 11.5 6.6 6.8 73 2.3 W 22 33 12 18 1013.3 1013.3 0.0
01/10:30am 10.6 6.0 6.4 75 2.0 W 20 30 11 16 1013.2 1013.2 0.0
01/10:00am 11.2 7.1 7.9 80 1.6 WSW 19 39 10 21 1013.2 1013.2 0.0
01/09:30am 10.7 6.9 7.6 81 1.5 W 17 28 9 15 1013.0 1013.0 0.0
01/09:00am 10.1 5.9 7.5 84 1.3 WSW 19 28 10 15 1012.8 1013.0 7.4
01/08:30am 9.8 6.6 8.4 91 0.7 WSW 15 20 8 11 1012.7 1012.9 7.4
01/08:00am 9.6 6.4 8.4 92 0.6 W 15 22 8 12 1012.4 1012.6 7.4
01/07:30am 9.2 6.8 8.6 96 0.3 W 11 17 6 9 1012.1 1012.3 7.4
01/07:00am 9.3 6.9 8.8 97 0.2 W 11 20 6 11 1012.0 1012.2 7.4
01/06:30am 9.5 6.4 8.7 95 0.4 W 15 24 8 13 1011.9 1012.1 6.4
01/06:00am 9.7 7.2 9.6 99 0.1 W 13 19 7 10 1011.3 1011.5 6.2
01/05:30am 9.8 7.3 9.7 99 0.1 WNW 13 20 7 11 1011.1 1011.3 5.8
01/05:00am 9.9 7.8 9.9 100 0.0 W 11 17 6 9 1010.7 1010.9 5.8
01/04:30am 9.8 7.7 9.8 100 0.0 WNW 11 15 6 8 1010.5 1010.7 5.6
01/04:00am 9.8 7.7 9.8 100 0.0 WNW 11 15 6 8 1010.3 1010.5 5.6
01/03:30am 9.9 7.8 9.9 100 0.0 WNW 11 15 6 8 1010.4 1010.6 5.6
01/03:00am 9.9 8.2 9.9 100 0.0 WNW 9 15 5 8 1010.5 1010.7 5.6
01/02:30am 10.1 8.5 10.1 100 0.0 WNW 9 15 5 8 1010.8 1011.0 5.6
01/02:00am 10.1 8.1 10.1 100 0.0 WNW 11 17 6 9 1010.8 1011.0 5.6
01/01:30am 10.2 7.8 10.2 100 0.0 WNW 13 20 7 11 1011.1 1011.3 5.6
01/01:00am 10.2 8.2 10.1 99 0.1 WNW 11 19 6 10 1011.5 1011.7 5.4
01/12:30am 10.1 8.0 9.8 98 0.2 W 11 15 6 8 1011.3 1011.5 5.0
01/12:00am 9.9 7.6 9.1 95 0.4 W 11 15 6 8 1011.6 1011.8 4.4
 
Date/Time
CST
Tmp

°C
App
Tmp
°C
Dew
Point
°C
Rel
Hum
%
Delta-T

°C
Wind Press
QNH
hPa
Press
MSL
hPa
Rain
since
9 am
mm
Dir
 
Spd
km/h
Gust
km/h
Spd
kts
Gust
kts
31/11:30pm 10.4 8.2 9.2 92 0.6 W 11 17 6 9 1010.8 1011.0 3.8
31/11:00pm 10.9 7.5 9.3 90 0.8 WSW 17 26 9 14 1010.3 1010.5 2.0
31/10:30pm 11.4 10.3 10.6 95 0.4 SW 7 19 4 10 1010.3 1010.5 0.8
31/10:00pm 11.7 10.0 11.1 96 0.3 WSW 11 19 6 10 1010.5 1010.7 0.6
31/09:30pm 12.0 9.2 11.2 95 0.4 WSW 17 26 9 14 1010.1 1010.3 0.4
31/09:00pm 12.0 10.3 11.1 94 0.5 W 11 20 6 11 1010.3 1010.5 0.4
31/08:30pm 11.5 9.9 10.2 92 0.7 W 9 13 5 7 1010.2 1010.4 0.4
31/08:00pm 11.6 8.4 8.6 82 1.5 WNW 15 28 8 15 1011.1 1011.3 0.0
31/07:30pm 12.9 10.0 6.7 66 3.0 NW 11 15 6 8 1010.5 1010.7 0.0
31/07:00pm 13.3 8.6 6.2 62 3.4 WNW 20 30 11 16 1010.5 1010.7 0.0
31/06:30pm 13.7 10.1 6.8 63 3.4 NW 15 20 8 11 1009.9 1010.1 0.0
31/06:00pm 14.3 11.3 5.9 57 4.1 NNW 11 22 6 12 1009.8 1010.0 0.0
31/05:30pm 14.2 11.0 6.8 61 3.7 NNW 13 20 7 11 1010.0 1010.2 0.0
31/05:00pm 14.3 10.8 7.4 63 3.5 NNW 15 24 8 13 1009.9 1010.1 0.0
31/04:30pm 14.6 10.2 7.2 61 3.7 NNW 20 32 11 17 1009.8 1010.0 0.0
31/04:00pm 15.1 10.5 6.7 57 4.2 NNW 20 30 11 16 1009.9 1010.1 0.0
31/03:30pm 15.4 11.2 5.6 52 4.8 NW 17 26 9 14 1010.0 1010.2 0.0
31/03:00pm 16.0 13.0 5.9 51 5.0 NNW 11 28 6 15 1009.4 1009.6 0.0
31/02:30pm 16.7 13.7 5.9 49 5.3 NNW 11 26 6 14 1009.7 1009.9 0.0
31/02:00pm 15.4 13.2 6.4 55 4.4 NW 7 17 4 9 1010.4 1010.6 0.0
31/01:30pm 15.0 12.8 6.3 56 4.3 NNW 7 24 4 13 1011.2 1011.4 0.0
31/01:00pm 14.4 12.3 5.7 56 4.2 N 6 17 3 9 1011.5 1011.7 0.0
31/12:30pm 15.7 13.5 6.4 54 4.6 NW 7 17 4 9 1012.4 1012.6 0.0
31/12:00pm 15.5 12.4 5.7 52 4.8 NNW 11 33 6 18 1013.2 1013.4 0.0
31/11:30am 16.7 13.0 4.7 45 5.8 NW 13 35 7 19 1013.4 1013.7 0.0
31/11:00am 16.6 13.3 4.3 44 5.9 NW 11 26 6 14 1013.8 1014.1 0.0
31/10:30am 15.7 13.2 5.0 49 5.2 NW 7 24 4 13 1013.9 1014.2 0.0
31/10:00am 14.3 10.6 2.5 45 5.3 NW 11 28 6 15 1014.6 1014.8 0.0
31/09:30am 14.6 12.1 4.6 51 4.7 NW 7 17 4 9 1014.9 1015.1 0.0
31/09:00am 14.1 11.6 3.6 49 4.8 NW 6 17 3 9 1015.0 1015.2 0.0
31/08:30am 13.3 10.6 2.8 49 4.7 NNW 6 9 3 5 1015.0 1015.2 0.0
31/08:00am 13.4 10.2 2.9 49 4.7 NW 9 20 5 11 1014.7 1014.9 0.0
31/07:30am 13.7 8.8 2.3 46 5.1 NW 17 28 9 15 1014.9 1015.1 0.0
31/07:00am 13.8 8.4 1.5 43 5.4 NW 19 33 10 18 1014.8 1015.0 0.0
31/06:30am 13.3 8.7 1.6 45 5.1 NW 15 26 8 14 1014.7 1014.9 0.0
31/06:00am 12.7 8.7 2.8 51 4.4 NW 13 26 7 14 1014.5 1014.7 0.0
31/05:30am 13.3 8.5 2.5 48 4.8 NW 17 24 9 13 1014.5 1014.7 0.0
31/05:00am 13.3 8.4 2.2 47 4.9 NW 17 28 9 15 1014.3 1014.5 0.0
31/04:30am 13.7 8.5 2.3 46 5.1 NW 19 26 10 14 1014.3 1014.5 0.0
31/04:00am 14.1 9.6 2.4 45 5.3 NW 15 30 8 16 1014.3 1014.5 0.0
31/03:30am 14.9 10.3 1.4 40 6.0 NW 15 22 8 12 1014.2 1014.4 0.0
31/03:00am 14.2 10.6 2.8 46 5.2 NNW 11 20 6 11 1014.3 1014.5 0.0
31/02:30am 14.1 10.5 2.7 46 5.2 NW 11 22 6 12 1014.8 1015.0 0.0
31/02:00am 14.1 10.7 3.8 50 4.8 NW 11 22 6 12 1015.1 1015.3 0.0
31/01:30am 14.7 11.1 3.2 46 5.3 NW 11 30 6 16 1015.5 1015.7 0.0
31/01:00am 15.8 12.5 2.2 40 6.2 NNW 9 20 5 11 1015.7 1015.9 0.0
31/12:30am 16.0 12.7 2.4 40 6.2 NNW 9 22 5 12 1015.9 1016.2 0.0
31/12:00am 15.6 13.0 3.1 43 5.8 WSW 6 13 3 7 1016.0 1016.3 0.0
 
Date/Time
CST
Tmp

°C
App
Tmp
°C
Dew
Point
°C
Rel
Hum
%
Delta-T

°C
Wind Press
QNH
hPa
Press
MSL
hPa
Rain
since
9 am
mm
Dir
 
Spd
km/h
Gust
km/h
Spd
kts
Gust
kts
30/11:30pm 14.5 12.3 3.6 48 5.0 NW 4 7 2 4 1016.5 1016.8 0.0
30/11:00pm 14.1 12.0 3.8 50 4.8 NNW 4 9 2 5 1016.9 1017.2 0.0
30/10:30pm 13.9 12.2 3.9 51 4.6 NNE 2 6 1 3 1017.3 1017.5 0.0
30/10:00pm 14.4 12.7 3.8 49 4.9 NNW 2 6 1 3 1017.7 1017.9 0.0
30/09:30pm 14.6 12.4 3.1 46 5.3 NW 4 7 2 4 1018.1 1018.3 0.0
30/09:00pm 14.8 12.9 2.7 44 5.5 NNW 2 6 1 3 1018.3 1018.5 0.0
30/08:30pm 15.1 12.3 2.3 42 5.8 NNW 6 9 3 5 1018.3 1018.5 0.0
30/08:00pm 15.9 12.5 2.0 39 6.3 NNW 9 19 5 10 1018.2 1018.4 0.0
30/07:30pm 15.8 12.8 1.9 39 6.3 NW 7 17 4 9 1018.2 1018.4 0.0
30/07:00pm 15.7 12.7 2.2 40 6.1 NW 7 15 4 8 1018.2 1018.4 0.0
30/06:30pm 15.1 12.3 2.3 42 5.8 NNW 6 17 3 9 1018.5 1018.8 0.0
30/06:00pm 15.4 12.7 2.9 43 5.7 NNW 6 11 3 6 1018.6 1018.9 0.0
30/05:30pm 15.6 13.4 3.4 44 5.7 NNW 4 15 2 8 1018.8 1019.1 0.0
30/05:00pm 16.6 13.9 3.7 42 6.1 NNW 7 15 4 8 1018.8 1019.1 0.0
30/04:30pm 17.9 14.9 4.1 40 6.6 NNW 9 17 5 9 1018.8 1019.1 0.0
30/04:00pm 18.7 16.0 5.5 42 6.6 NNW 9 22 5 12 1018.8 1019.1 0.0
30/03:30pm 18.6 15.5 5.5 42 6.5 NNW 11 20 6 11 1019.1 1019.4 0.0
30/03:00pm 19.2 16.7 6.7 44 6.4 NNW 9 20 5 11 1019.4 1019.7 0.0
30/02:30pm 18.6 15.2 5.8 43 6.4 NNW 13 32 7 17 1019.7 1020.0 0.0
30/02:00pm 18.8 15.6 6.9 46 6.1 NNW 13 26 7 14 1019.9 1020.2 0.0
30/01:30pm 18.3 14.6 6.5 46 5.9 NNW 15 22 8 12 1020.4 1020.6 0.0
30/01:00pm 17.9 14.4 5.5 44 6.1 NNW 13 20 7 11 1020.9 1021.2 0.0
30/12:30pm 18.3 15.0 4.8 41 6.6 NNW 11 19 6 10 1021.4 1021.7 0.0
30/12:00pm 17.4 15.4 6.9 50 5.3 NNW 7 17 4 9 1021.9 1022.2 0.0
30/11:30am 17.3 15.6 7.6 53 5.0 NNE 6 13 3 7 1022.3 1022.6 0.0
30/11:00am 16.5 14.3 6.3 51 5.1 WNW 7 13 4 7 1022.5 1022.8 0.0
30/10:30am 18.1 16.2 6.9 48 5.7 NW 6 17 3 9 1022.8 1023.1 0.0
30/10:00am 17.4 15.5 6.6 49 5.4 NNW 6 17 3 9 1022.9 1023.2 0.0
30/09:30am 15.6 13.5 6.6 55 4.5 NNW 7 13 4 7 1023.1 1023.4 0.0
30/09:00am 15.6 14.3 7.6 59 4.0 WNW 4 15 2 8 1023.1 1023.4 0.0
30/08:30am 14.5 13.1 7.1 61 3.7 NW 4 7 2 4 1023.0 1023.3 0.0
30/08:00am 12.7 10.9 7.0 68 2.8 NW 6 7 3 4 1022.9 1023.2 0.0
30/07:30am 10.6 8.2 5.2 69 2.5 NNW 7 11 4 6 1022.9 1023.2 0.0
30/07:00am 10.8 9.3 4.9 67 2.7 NE 2 6 1 3 1022.8 1023.1 0.0
30/06:30am 10.9 9.4 5.0 67 2.7 NE 2 6 1 3 1022.8 1023.1 0.0
30/06:00am 11.0 9.9 5.3 68 2.7 CALM 0 4 0 2 1022.9 1023.2 0.0
30/05:30am 11.3 10.3 5.6 68 2.7 CALM 0 2 0 1 1022.9 1023.2 0.0
30/05:00am 11.8 10.1 5.9 67 2.8 NE 4 6 2 3 1023.1 1023.4 0.0
30/04:30am 12.8 11.5 6.2 64 3.2 NE 2 6 1 3 1023.1 1023.4 0.0
30/04:00am 13.2 10.7 6.5 64 3.3 NE 9 11 5 6 1023.1 1023.4 0.0
30/03:30am 14.5 11.6 6.3 58 4.0 NE 11 15 6 8 1023.2 1023.6 0.0
30/03:00am 14.7 11.4 6.3 57 4.1 ENE 13 19 7 10 1023.3 1023.7 0.0
30/02:30am 14.4 11.0 6.0 57 4.1 ENE 13 19 7 10 1023.7 1024.0 0.0
30/02:00am 15.0 10.5 6.0 55 4.4 ENE 19 22 10 12 1023.7 1024.0 0.0
30/01:30am 15.1 10.6 5.9 54 4.5 ENE 19 22 10 12 1024.0 1024.3 0.0
30/01:00am 15.3 10.6 5.0 50 4.9 ENE 19 22 10 12 1024.3 1024.6 0.0
30/12:30am 15.7 10.8 4.1 46 5.5 ENE 19 24 10 13 1024.6 1024.9 0.0
30/12:00am 15.5 10.7 4.6 48 5.2 ENE 19 24 10 13 1024.7 1025.0 0.0
 
Date/Time
CST
Tmp

°C
App
Tmp
°C
Dew
Point
°C
Rel
Hum
%
Delta-T

°C
Wind Press
QNH
hPa
Press
MSL
hPa
Rain
since
9 am
mm
Dir
 
Spd
km/h
Gust
km/h
Spd
kts
Gust
kts
29/11:30pm 16.0 11.3 5.0 48 5.3 ENE 19 24 10 13 1024.9 1025.2 0.0
29/11:00pm 15.7 11.0 5.3 50 5.0 ENE 19 22 10 12 1025.0 1025.3 0.0
29/10:30pm 15.7 11.9 5.9 52 4.8 ENE 15 19 8 10 1025.3 1025.6 0.0
29/10:00pm 16.1 12.3 6.0 51 5.0 ENE 15 19 8 10 1025.5 1025.8 0.0
29/09:30pm 17.0 13.7 6.2 49 5.3 ENE 13 17 7 9 1025.7 1026.1 0.0
29/09:00pm 16.8 13.8 6.0 49 5.3 NE 11 15 6 8 1025.8 1026.2 0.0
29/08:30pm 16.5 13.6 4.9 46 5.6 NE 9 11 5 6 1025.9 1026.3 0.0
29/08:00pm 16.1 13.3 3.2 42 6.0 NNE 7 9 4 5 1025.8 1026.2 0.0
29/07:30pm 16.6 14.2 2.2 38 6.5 N 4 6 2 3 1025.7 1026.1 0.0
29/07:00pm 16.3 14.0 3.0 41 6.2 N 4 7 2 4 1025.7 1026.1 0.0
29/06:30pm 16.8 14.7 3.8 42 6.1 NNW 4 6 2 3 1025.6 1025.9 0.0
29/06:00pm 16.9 14.9 4.3 43 6.0 NNW 4 4 2 2 1025.5 1025.8 0.0
29/05:30pm 17.8 16.6 4.4 41 6.4 CALM 0 0 0 0 1025.5 1025.8 0.0
29/05:00pm 18.7 16.5 3.3 36 7.3 NNW 4 7 2 4 1025.5 1025.8 0.0

Latest Capital City Observations: Canberra | Sydney | Melbourne | Brisbane | Adelaide | Perth | Hobart | Darwin

Other Formats:

Comma delimited format used in spreadsheet applications
http://www.bom.gov.au/fwo/IDS60901/IDS60901.94811.axf

JavaScript Object Notation format (JSON) in row-major order
http://www.bom.gov.au/fwo/IDS60901/IDS60901.94811.json